createdAt,value
2019-04-11T00:05:37.718Z,8.90
2019-04-11T00:08:06.359Z,8.70
2019-04-11T00:10:55.568Z,8.43
2019-04-11T00:13:27.545Z,8.47
2019-04-11T00:15:57.133Z,8.20
2019-04-11T00:21:33.394Z,7.90
2019-04-11T00:24:02.767Z,7.80
2019-04-11T00:26:33.481Z,7.43
2019-04-11T00:29:03.851Z,6.87
2019-04-11T00:31:33.423Z,8.70
2019-04-11T00:34:02.659Z,8.20
2019-04-11T00:36:32.567Z,8.03
2019-04-11T00:39:03.490Z,8.53
2019-04-11T00:41:34.301Z,7.10
2019-04-11T00:44:45.160Z,8.60
2019-04-11T00:47:15.137Z,8.07
2019-04-11T00:49:46.389Z,7.70
2019-04-11T00:52:16.244Z,7.50
2019-04-11T00:54:46.963Z,7.10
2019-04-11T00:57:57.095Z,7.93
2019-04-11T01:00:27.531Z,6.67
2019-04-11T01:02:56.222Z,7.30
2019-04-11T01:05:25.642Z,7.37
2019-04-11T01:07:56.727Z,7.63
2019-04-11T01:10:26.739Z,7.43
2019-04-11T01:12:56.610Z,8.30
2019-04-11T01:15:27.175Z,7.07
2019-04-11T01:20:48.006Z,7.20
2019-04-11T01:23:17.211Z,6.23
2019-04-11T01:25:46.473Z,7.53
2019-04-11T01:28:15.342Z,7.00
2019-04-11T01:31:03.485Z,6.70
2019-04-11T01:33:32.789Z,7.20
2019-04-11T01:36:02.689Z,8.10
2019-04-11T01:41:22.488Z,8.10
2019-04-11T01:43:56.472Z,7.63
2019-04-11T01:46:42.393Z,7.63
2019-04-11T01:52:06.497Z,7.03
2019-04-11T01:54:37.562Z,8.00
2019-04-11T01:57:07.203Z,7.63
2019-04-11T01:59:37.486Z,6.77
2019-04-11T02:02:26.443Z,7.23
2019-04-11T02:07:36.735Z,7.40
2019-04-11T02:10:45.356Z,6.33
2019-04-11T02:13:15.205Z,7.13
2019-04-11T02:15:46.283Z,7.33
2019-04-11T02:18:15.757Z,7.23
2019-04-11T02:20:45.177Z,7.10
2019-04-11T02:23:35.057Z,6.70
2019-04-11T02:26:23.648Z,7.07
2019-04-11T02:29:11.732Z,6.80
2019-04-11T02:31:42.400Z,7.30
2019-04-11T02:34:13.567Z,6.83
2019-04-11T02:37:02.470Z,6.87
2019-04-11T02:39:33.798Z,6.50
2019-04-11T02:42:03.858Z,8.20
2019-04-11T02:44:50.973Z,7.87
2019-04-11T02:47:09.814Z,7.03
2019-04-11T02:49:35.822Z,7.23
2019-04-11T02:52:07.169Z,7.27
2019-04-11T02:55:17.121Z,8.20
2019-04-11T03:00:42.066Z,6.47
2019-04-11T03:03:12.858Z,6.80
2019-04-11T03:05:41.924Z,7.17
2019-04-11T03:08:15.700Z,7.57
2019-04-11T03:10:43.046Z,7.20
2019-04-11T03:13:13.232Z,7.00
2019-04-11T03:16:00.501Z,7.13
2019-04-11T03:18:33.365Z,7.23
2019-04-11T03:20:49.795Z,8.97
2019-04-11T03:23:18.500Z,6.77
2019-04-11T03:25:45.484Z,7.20
2019-04-11T03:28:57.472Z,8.47
2019-04-11T03:32:04.181Z,7.20
2019-04-11T03:39:15.360Z,8.70
2019-04-11T03:41:48.829Z,8.83
2019-04-11T03:44:09.575Z,7.13
2019-04-11T03:46:48.328Z,8.63
2019-04-11T03:49:31.691Z,7.10
2019-04-11T03:51:53.105Z,8.10
2019-04-11T03:57:51.814Z,8.20
2019-04-11T04:00:23.747Z,7.53
2019-04-11T04:02:55.125Z,7.97
2019-04-11T04:05:26.387Z,8.33
2019-04-11T04:07:57.574Z,7.57
2019-04-11T04:13:03.288Z,8.00
2019-04-11T04:16:02.734Z,8.30
2019-04-11T04:18:43.590Z,7.90
2019-04-11T04:21:51.266Z,7.87
2019-04-11T04:24:42.721Z,7.53
2019-04-11T04:30:47.007Z,8.17
2019-04-11T04:33:19.350Z,8.17
2019-04-11T04:35:49.462Z,7.83
2019-04-11T04:38:41.367Z,8.30
2019-04-11T04:41:38.416Z,7.63
2019-04-11T04:44:22.288Z,7.03
2019-04-11T04:46:59.951Z,7.57
2019-04-11T04:49:21.516Z,9.67
2019-04-11T04:51:51.179Z,8.03
2019-04-11T04:54:22.167Z,10.07
2019-04-11T04:57:13.158Z,8.30
2019-04-11T04:59:42.528Z,6.80
2019-04-11T05:02:12.951Z,8.13
2019-04-11T05:04:43.711Z,9.10
2019-04-11T05:07:13.240Z,9.10
2019-04-11T05:09:42.647Z,7.93
2019-04-11T05:12:34.461Z,7.97
2019-04-11T05:15:03.762Z,10.37
2019-04-11T05:17:34.514Z,11.07
2019-04-11T05:20:24.855Z,9.97
2019-04-11T05:22:53.641Z,9.63
2019-04-11T05:25:22.345Z,10.40
2019-04-11T05:27:50.977Z,7.97
2019-04-11T05:30:19.763Z,9.00
2019-04-11T05:32:49.310Z,10.07
2019-04-11T05:35:18.761Z,9.63
2019-04-11T05:37:47.444Z,9.40
2019-04-11T05:40:16.868Z,8.77
2019-04-11T05:42:51.034Z,10.03
2019-04-11T05:45:21.064Z,9.50
2019-04-11T05:53:05.704Z,8.13
2019-04-11T06:01:24.397Z,9.43
2019-04-11T06:06:49.101Z,7.43
2019-04-11T06:09:39.764Z,7.27
2019-04-11T06:12:27.563Z,10.17
2019-04-11T06:17:32.375Z,8.43
2019-04-11T06:20:20.113Z,9.13
2019-04-11T06:23:07.923Z,9.70
2019-04-11T06:31:40.902Z,10.13
2019-04-11T06:34:09.629Z,9.83
2019-04-11T06:36:57.372Z,10.27
2019-04-11T06:39:45.358Z,9.43
2019-04-11T06:47:47.444Z,8.60
2019-04-11T06:50:35.472Z,8.60
2019-04-11T06:53:04.534Z,8.70
2019-04-11T06:56:13.045Z,8.10
2019-04-11T06:59:01.715Z,8.10
2019-04-11T07:01:31.284Z,7.03
2019-04-11T07:04:19.768Z,7.10
2019-04-11T07:09:57.657Z,7.03
2019-04-11T07:15:42.534Z,7.30
2019-04-11T07:18:31.226Z,7.20
2019-04-11T07:21:42.627Z,9.00
2019-04-11T07:24:49.714Z,9.33
2019-04-11T07:27:18.470Z,9.23
2019-04-11T07:30:25.793Z,9.10
2019-04-11T07:44:43.490Z,8.57
2019-04-11T07:52:42.591Z,8.67
2019-04-11T07:58:23.978Z,8.97
2019-04-11T08:04:08.563Z,8.57
2019-04-11T08:07:19.923Z,8.43
2019-04-11T08:10:30.313Z,9.60
2019-04-11T08:13:38.806Z,10.10
2019-04-11T08:16:47.374Z,10.30
2019-04-11T08:19:35.288Z,9.60
2019-04-11T08:30:55.179Z,9.70
2019-04-11T08:34:04.891Z,8.63
2019-04-11T08:36:54.941Z,7.03
2019-04-11T08:42:40.362Z,9.00
2019-04-11T08:48:28.890Z,8.87
2019-04-11T08:51:17.447Z,9.67
2019-04-11T08:54:05.260Z,7.33
2019-04-11T08:56:34.844Z,8.80
2019-04-11T08:59:43.843Z,8.33
2019-04-11T09:02:12.816Z,8.23
2019-04-11T09:05:07.039Z,8.83
2019-04-11T09:07:50.044Z,10.80
2019-04-11T09:10:37.985Z,7.90
2019-04-11T09:13:27.073Z,9.87
2019-04-11T09:16:15.438Z,9.40
2019-04-11T09:21:38.805Z,7.60
2019-04-11T09:24:26.620Z,8.97
2019-04-11T09:27:14.374Z,10.17
2019-04-11T09:30:02.627Z,10.30
2019-04-11T09:33:11.053Z,8.77
2019-04-11T09:35:59.714Z,9.63
2019-04-11T09:41:24.706Z,10.03
2019-04-11T09:52:40.938Z,10.67
2019-04-11T09:55:29.097Z,9.73
2019-04-11T10:03:37.107Z,9.47
2019-04-11T10:06:24.960Z,10.60
2019-04-11T10:11:48.704Z,10.00
2019-04-11T10:14:17.651Z,8.57
2019-04-11T10:17:06.844Z,9.30
2019-04-11T10:22:44.031Z,9.20
2019-04-11T10:25:32.191Z,9.03
2019-04-11T10:28:20.115Z,10.80
2019-04-11T10:31:08.515Z,9.13
2019-04-11T10:36:32.868Z,10.03
2019-04-11T10:39:21.580Z,10.87
2019-04-11T10:42:10.561Z,10.77
2019-04-11T10:44:58.436Z,10.80
2019-04-11T10:56:04.242Z,11.03
2019-04-11T11:04:18.086Z,11.87
2019-04-11T11:21:02.611Z,10.60
2019-04-11T11:23:50.492Z,10.43
2019-04-11T11:29:15.821Z,13.23
2019-04-11T11:32:05.152Z,12.33
2019-04-11T11:37:42.737Z,12.60
2019-04-11T11:40:30.639Z,10.13
2019-04-11T11:43:19.034Z,8.87
2019-04-11T11:46:07.025Z,10.43
2019-04-11T11:48:54.776Z,8.23
2019-04-11T11:51:43.579Z,11.07
2019-04-11T12:05:29.859Z,13.60
2019-04-11T12:08:18.210Z,12.77
2019-04-11T12:13:55.807Z,11.07
2019-04-11T12:19:44.688Z,11.73
2019-04-11T12:22:04.284Z,10.27
2019-04-11T12:24:52.786Z,10.13
2019-04-11T12:32:57.384Z,12.63
2019-04-11T12:44:04.449Z,12.73
2019-04-11T12:46:52.281Z,11.77
2019-04-11T12:49:40.193Z,10.10
2019-04-11T12:52:27.991Z,12.07
2019-04-11T12:55:15.773Z,12.87
2019-04-11T12:58:03.514Z,10.67
2019-04-11T13:06:37.650Z,10.77
2019-04-11T13:09:46.635Z,10.27
2019-04-11T13:12:35.809Z,13.63
2019-04-11T13:15:44.289Z,12.23
2019-04-11T13:21:07.796Z,12.73
2019-04-11T13:23:55.610Z,10.53
2019-04-11T13:26:43.383Z,10.97
2019-04-11T13:29:31.189Z,11.73
2019-04-11T13:32:18.958Z,11.47
2019-04-11T13:37:42.531Z,11.27
2019-04-11T13:40:30.446Z,10.57
2019-04-11T13:43:18.148Z,11.83
2019-04-11T13:46:05.969Z,11.90
2019-04-11T13:48:53.691Z,11.80
2019-04-11T13:51:41.509Z,13.50
2019-04-11T13:54:29.329Z,12.90
2019-04-11T13:57:17.025Z,8.80
2019-04-11T14:00:04.842Z,10.73
2019-04-11T14:02:52.656Z,11.17
2019-04-11T14:11:04.883Z,12.57
2019-04-11T14:19:22.330Z,10.30
2019-04-11T14:24:45.282Z,11.70
2019-04-11T14:27:33.067Z,11.23
2019-04-11T14:30:20.794Z,10.60
2019-04-11T14:41:41.571Z,10.80
2019-04-11T14:44:09.623Z,10.67
2019-04-11T14:46:57.359Z,11.10
2019-04-11T14:49:27.188Z,10.37
2019-04-11T14:52:17.288Z,13.03
2019-04-11T14:54:48.921Z,11.93
2019-04-11T14:57:35.540Z,10.80
2019-04-11T15:00:43.970Z,12.70
2019-04-11T15:03:31.803Z,12.30
2019-04-11T15:09:08.820Z,9.57
2019-04-11T15:11:56.614Z,11.27
2019-04-11T15:14:47.508Z,10.47
2019-04-11T15:23:18.360Z,9.77
2019-04-11T15:26:08.191Z,10.47
2019-04-11T15:28:55.588Z,10.70
2019-04-11T15:31:43.360Z,12.53
2019-04-11T15:34:31.179Z,8.43
2019-04-11T15:40:08.193Z,9.07
2019-04-11T15:42:55.957Z,10.10
2019-04-11T15:45:46.477Z,10.43
2019-04-11T15:48:33.296Z,12.47
2019-04-11T15:51:20.990Z,8.77
2019-04-11T15:56:47.927Z,9.43
2019-04-11T16:02:11.658Z,8.63
2019-04-11T16:05:02.016Z,9.07
2019-04-11T16:07:48.980Z,10.10
2019-04-11T16:13:12.061Z,9.93
2019-04-11T16:18:35.150Z,8.47
2019-04-11T16:29:22.891Z,8.20
2019-04-11T16:37:23.220Z,11.13
2019-04-11T16:40:10.843Z,9.93
2019-04-11T16:45:55.336Z,9.37
2019-04-11T16:48:26.522Z,10.87
2019-04-11T16:50:55.205Z,8.83
2019-04-11T16:53:23.898Z,9.77
2019-04-11T16:55:53.913Z,9.40
2019-04-11T16:58:23.110Z,12.00
2019-04-11T17:00:52.666Z,9.87
2019-04-11T17:03:24.789Z,10.17
2019-04-11T17:06:11.859Z,9.23
2019-04-11T17:13:51.346Z,8.57
2019-04-11T17:16:20.127Z,11.37
2019-04-11T17:18:48.772Z,9.90
2019-04-11T17:21:17.494Z,10.70
2019-04-11T17:23:47.154Z,11.87
2019-04-11T17:26:16.498Z,9.63
2019-04-11T17:28:45.172Z,9.47
2019-04-11T17:31:14.100Z,9.50
2019-04-11T17:33:42.762Z,11.80
2019-04-11T17:36:11.475Z,10.10
2019-04-11T17:38:40.158Z,10.37
2019-04-11T17:41:11.359Z,8.90
2019-04-11T17:43:41.990Z,9.80
2019-04-11T17:46:09.657Z,9.03
2019-04-11T17:48:38.223Z,9.53
2019-04-11T17:51:09.435Z,9.53
2019-04-11T17:53:37.282Z,8.30
2019-04-11T17:56:05.936Z,9.27
2019-04-11T17:58:34.616Z,10.33
2019-04-11T18:03:58.069Z,9.00
2019-04-11T18:06:26.715Z,9.77
2019-04-11T18:08:55.355Z,10.10
2019-04-11T18:11:26.226Z,9.63
2019-04-11T18:13:54.364Z,10.43
2019-04-11T18:16:22.951Z,8.40
2019-04-11T18:18:51.569Z,8.80
2019-04-11T18:21:39.487Z,10.33
2019-04-11T18:24:50.153Z,9.03
2019-04-11T18:29:53.955Z,10.30
2019-04-11T18:35:31.935Z,8.37
2019-04-11T18:40:55.405Z,9.17
2019-04-11T18:43:25.529Z,9.77
2019-04-11T18:45:54.368Z,8.23
2019-04-11T18:48:23.020Z,9.40
2019-04-11T18:50:53.193Z,8.63
2019-04-11T18:53:22.165Z,9.13
2019-04-11T18:55:50.883Z,10.13
2019-04-11T18:58:19.533Z,9.03
2019-04-11T19:00:48.216Z,10.60
2019-04-11T19:03:16.802Z,9.13
2019-04-11T19:05:45.514Z,9.53
2019-04-11T19:08:33.566Z,10.17
2019-04-11T19:11:02.300Z,9.03
2019-04-11T19:13:30.992Z,9.03
2019-04-11T19:15:59.695Z,10.07
2019-04-11T19:18:28.336Z,8.40
2019-04-11T19:20:56.983Z,8.93
2019-04-11T19:23:25.601Z,9.27
2019-04-11T19:25:54.175Z,9.90
2019-04-11T19:28:24.946Z,8.27
2019-04-11T19:30:53.980Z,9.30
2019-04-11T19:33:23.601Z,9.53
2019-04-11T19:35:52.255Z,7.50
2019-04-11T19:38:43.058Z,6.77
2019-04-11T19:41:10.663Z,8.73
2019-04-11T19:43:40.814Z,9.33
2019-04-11T19:46:09.653Z,7.43
2019-04-11T19:48:38.304Z,7.73
2019-04-11T19:51:06.996Z,9.17
2019-04-11T19:53:35.678Z,8.70
2019-04-11T19:58:43.786Z,8.07
2019-04-11T20:01:12.471Z,9.07
2019-04-11T20:03:41.202Z,9.07
2019-04-11T20:06:13.114Z,9.63
2019-04-11T20:08:44.277Z,8.00
2019-04-11T20:11:12.900Z,8.00
2019-04-11T20:13:49.144Z,8.50
2019-04-11T20:16:17.730Z,8.87
2019-04-11T20:18:51.361Z,7.90
2019-04-11T20:21:16.729Z,6.73
2019-04-11T20:23:45.350Z,7.33
2019-04-11T20:26:13.968Z,7.70
2019-04-11T20:28:42.595Z,5.80
2019-04-11T20:31:11.290Z,7.97
2019-04-11T20:33:39.959Z,7.53
2019-04-11T20:36:11.114Z,8.37
2019-04-11T20:38:39.061Z,7.17
2019-04-11T20:41:07.718Z,7.53
2019-04-11T20:43:36.358Z,8.13
2019-04-11T20:46:05.034Z,7.40
2019-04-11T20:48:35.165Z,8.10
2019-04-11T20:51:04.277Z,7.83
2019-04-11T20:53:36.796Z,7.73
2019-04-11T20:56:44.584Z,7.73
2019-04-11T20:59:13.269Z,7.80
2019-04-11T21:01:41.916Z,7.57
2019-04-11T21:04:10.688Z,7.90
2019-04-11T21:06:39.326Z,8.77
2019-04-11T21:09:47.809Z,7.83
2019-04-11T21:15:24.978Z,7.70
2019-04-11T21:18:13.001Z,7.77
2019-04-11T21:20:41.623Z,7.53
2019-04-11T21:23:10.293Z,7.23
2019-04-11T21:25:38.905Z,7.73
2019-04-11T21:28:07.589Z,8.00
2019-04-11T21:30:36.243Z,7.33
2019-04-11T21:33:04.912Z,6.77
2019-04-11T21:35:34.031Z,7.63
2019-04-11T21:38:03.950Z,7.10
2019-04-11T21:40:35.645Z,6.83
2019-04-11T21:43:05.968Z,7.03
2019-04-11T21:45:35.434Z,7.47
2019-04-11T21:48:05.763Z,7.70
2019-04-11T21:50:34.157Z,7.13
2019-04-11T21:53:02.807Z,8.70
2019-04-11T21:58:26.398Z,7.80
2019-04-11T22:01:34.828Z,6.93
2019-04-11T22:04:03.578Z,7.83
2019-04-11T22:06:32.206Z,7.20
2019-04-11T22:09:04.875Z,7.77
2019-04-11T22:11:31.244Z,8.03
2019-04-11T22:13:59.867Z,7.47
2019-04-11T22:16:28.511Z,7.33
2019-04-11T22:18:57.213Z,7.47
2019-04-11T22:21:25.814Z,8.23
2019-04-11T22:23:54.503Z,8.23
2019-04-11T22:26:23.145Z,7.60
2019-04-11T22:28:54.870Z,7.37
2019-04-11T22:31:24.737Z,7.67
2019-04-11T22:34:11.773Z,7.07
2019-04-11T22:36:40.448Z,6.83
2019-04-11T22:39:48.873Z,7.37
2019-04-11T22:42:17.630Z,7.63
2019-04-11T22:44:46.203Z,6.53
2019-04-11T22:47:14.826Z,8.33
2019-04-11T22:49:43.463Z,7.60
2019-04-11T22:52:12.202Z,8.13
2019-04-11T22:54:41.766Z,7.00
2019-04-11T22:57:12.120Z,8.57
2019-04-11T22:59:44.058Z,8.33
2019-04-11T23:02:31.139Z,7.17
2019-04-11T23:04:59.757Z,7.47
2019-04-11T23:07:28.407Z,7.80
2019-04-11T23:09:57.142Z,8.07
2019-04-11T23:12:25.726Z,7.57
2019-04-11T23:14:54.406Z,8.43
2019-04-11T23:17:23.075Z,9.07
2019-04-11T23:19:51.726Z,8.77
2019-04-11T23:22:20.406Z,8.33
2019-04-11T23:24:49.056Z,8.93
2019-04-11T23:27:17.741Z,7.43
2019-04-11T23:29:47.165Z,7.00
2019-04-11T23:32:18.850Z,9.40
2019-04-11T23:34:47.092Z,9.60
2019-04-11T23:37:15.726Z,7.73
2019-04-11T23:39:44.429Z,8.43
2019-04-11T23:42:13.200Z,8.70
2019-04-11T23:44:41.741Z,6.90
2019-04-11T23:47:10.342Z,8.70
2019-04-11T23:49:38.969Z,7.10
2019-04-11T23:52:07.644Z,9.10
2019-04-11T23:57:25.544Z,8.60
2019-04-11T23:59:54.130Z,8.60
